Time;durP1;ratioP1;P1;durP2;ratioP2;P2;SDS_P1;SDS_P2;PMS_P1;PMS_P2;Temp;Humidity;BMP_temperature;BMP_pressure;BME280_temperature;BME280_humidity;BME280_pressure;Samples;Min_cycle;Max_cycle;Signal;HPM_P1;HPM_P2
2021/10/18 00:01:40;;;;;;;18.63;14.63;;;;;;;;;;4977765;28;20668;-79
2021/10/18 00:04:07;;;;;;;17.00;14.00;;;;;;;;;;4976991;28;20718;-79
2021/10/18 00:06:34;;;;;;;17.00;13.83;;;;;;;;;;4974060;28;20583;-80
2021/10/18 00:09:02;;;;;;;18.33;13.93;;;;;;;;;;4976981;28;20644;-80
2021/10/18 00:11:29;;;;;;;18.07;14.13;;;;;;;;;;4978829;28;20230;-80
2021/10/18 00:13:57;;;;;;;17.50;13.47;;;;;;;;;;4982674;28;20215;-79
2021/10/18 00:16:24;;;;;;;16.27;13.43;;;;;;;;;;4978138;28;20289;-79
2021/10/18 00:18:53;;;;;;;15.40;12.90;;;;;;;;;;4973336;28;20325;-79
2021/10/18 00:21:20;;;;;;;17.30;13.67;;;;;;;;;;4986837;28;20734;-80
2021/10/18 00:23:47;;;;;;;16.60;13.13;;;;;;;;;;4981090;28;20291;-80
2021/10/18 00:26:14;;;;;;;19.77;13.20;;;;;;;;;;4979687;28;20290;-80
2021/10/18 00:28:42;;;;;;;18.57;13.30;;;;;;;;;;4988133;28;20285;-80
2021/10/18 00:31:09;;;;;;;14.47;12.73;;;;;;;;;;4988470;28;20317;-79
2021/10/18 00:33:36;;;;;;;14.43;12.63;;;;;;;;;;4978666;28;20315;-79
2021/10/18 00:36:05;;;;;;;17.10;12.90;;;;;;;;;;4989074;28;20748;-80
2021/10/18 00:38:32;;;;;;;14.73;12.37;;;;;;;;;;4978628;28;20314;-79
2021/10/18 00:41:00;;;;;;;15.63;12.10;;;;;;;;;;4990434;28;20296;-80
2021/10/18 00:43:27;;;;;;;16.40;12.90;;;;;;;;;;4978981;28;20285;-78
2021/10/18 00:45:54;;;;;;;14.60;12.00;;;;;;;;;;4988327;28;20288;-79
2021/10/18 00:48:21;;;;;;;15.53;12.07;;;;;;;;;;4992272;28;20198;-79
2021/10/18 00:50:51;;;;;;;15.13;12.60;;;;;;;;;;4991832;28;20776;-79
2021/10/18 00:53:20;;;;;;;15.90;12.73;;;;;;;;;;4991314;28;20207;-79
2021/10/18 00:55:47;;;;;;;15.70;12.60;;;;;;;;;;4985669;28;20756;-79
2021/10/18 00:58:14;;;;;;;15.97;12.87;;;;;;;;;;4983010;28;20312;-79
2021/10/18 01:00:41;;;;;;;15.17;12.90;;;;;;;;;;4979985;28;20305;-80
2021/10/18 01:03:09;;;;;;;16.57;12.50;;;;;;;;;;4980490;28;20310;-79
2021/10/18 01:05:40;;;;;;;16.60;13.30;;;;;;;;;;4978999;28;20290;-81
2021/10/18 01:08:08;;;;;;;14.27;12.00;;;;;;;;;;4979852;28;20201;-79
2021/10/18 01:10:37;;;;;;;16.50;12.67;;;;;;;;;;4983251;28;20240;-79
2021/10/18 01:13:04;;;;;;;14.23;11.83;;;;;;;;;;4983275;28;20304;-79
2021/10/18 01:15:31;;;;;;;15.83;13.40;;;;;;;;;;4979466;28;20301;-80
2021/10/18 01:17:59;;;;;;;14.83;12.27;;;;;;;;;;4983730;28;20305;-79
2021/10/18 01:20:31;;;;;;;13.47;11.73;;;;;;;;;;4978849;28;20206;-79
2021/10/18 01:22:58;;;;;;;17.20;12.87;;;;;;;;;;4976645;28;20295;-80
2021/10/18 01:25:26;;;;;;;17.93;13.50;;;;;;;;;;4988555;28;20237;-80
2021/10/18 01:27:54;;;;;;;17.13;13.30;;;;;;;;;;4984378;28;20617;-80
2021/10/18 01:30:21;;;;;;;17.53;12.83;;;;;;;;;;4982152;28;20205;-78
2021/10/18 01:32:48;;;;;;;16.93;12.73;;;;;;;;;;4986564;28;20646;-79
2021/10/18 01:35:15;;;;;;;16.17;12.93;;;;;;;;;;4978890;28;20289;-78
2021/10/18 01:37:44;;;;;;;16.43;12.60;;;;;;;;;;4982626;28;20256;-79
2021/10/18 01:40:13;;;;;;;17.10;13.43;;;;;;;;;;4983397;28;20228;-79
2021/10/18 01:42:41;;;;;;;17.17;13.40;;;;;;;;;;4982683;28;20285;-79
2021/10/18 01:45:08;;;;;;;15.93;13.23;;;;;;;;;;4977314;28;20244;-79
2021/10/18 01:47:36;;;;;;;15.33;13.10;;;;;;;;;;4988062;28;20199;-79
2021/10/18 01:50:07;;;;;;;14.97;13.23;;;;;;;;;;4991019;28;20205;-79
2021/10/18 01:52:34;;;;;;;17.07;13.03;;;;;;;;;;4991324;28;20293;-79
2021/10/18 01:55:03;;;;;;;17.97;13.23;;;;;;;;;;4987167;28;20199;-78
2021/10/18 01:57:30;;;;;;;15.97;13.60;;;;;;;;;;4971530;28;22601;-79
2021/10/18 01:59:57;;;;;;;17.53;13.43;;;;;;;;;;4971365;28;20626;-79
2021/10/18 02:02:25;;;;;;;16.43;13.07;;;;;;;;;;4984805;28;20218;-79
2021/10/18 02:04:52;;;;;;;18.70;13.53;;;;;;;;;;4990443;28;20289;-80
2021/10/18 02:07:19;;;;;;;21.70;14.83;;;;;;;;;;4990796;28;20854;-79
2021/10/18 02:09:46;;;;;;;18.27;14.30;;;;;;;;;;4990420;28;20292;-79
2021/10/18 02:12:15;;;;;;;16.80;13.77;;;;;;;;;;4990922;28;20237;-80
2021/10/18 02:14:42;;;;;;;17.07;14.23;;;;;;;;;;4989906;28;20288;-79
2021/10/18 02:17:09;;;;;;;17.30;14.37;;;;;;;;;;4974875;28;20757;-81
2021/10/18 02:19:36;;;;;;;20.27;14.67;;;;;;;;;;4981198;28;20773;-81
2021/10/18 02:22:04;;;;;;;15.63;13.77;;;;;;;;;;4978901;28;20772;-81
2021/10/18 02:24:31;;;;;;;17.00;13.63;;;;;;;;;;4978947;28;20205;-81
2021/10/18 02:26:58;;;;;;;15.60;13.00;;;;;;;;;;4975815;28;20198;-81
2021/10/18 02:29:27;;;;;;;15.20;13.20;;;;;;;;;;4981773;28;20635;-81
2021/10/18 02:31:54;;;;;;;16.10;12.67;;;;;;;;;;4981467;28;20202;-81
2021/10/18 02:34:21;;;;;;;17.03;13.57;;;;;;;;;;4983226;28;20348;-80
2021/10/18 02:36:48;;;;;;;17.43;13.77;;;;;;;;;;4986004;28;20213;-80
2021/10/18 02:39:16;;;;;;;20.60;15.10;;;;;;;;;;4982397;28;20227;-81
2021/10/18 02:41:43;;;;;;;21.37;14.37;;;;;;;;;;4978436;28;20293;-80
2021/10/18 02:44:10;;;;;;;16.70;14.40;;;;;;;;;;4979560;28;20758;-80
2021/10/18 02:46:39;;;;;;;20.27;15.23;;;;;;;;;;4981955;28;20713;-81
2021/10/18 02:49:06;;;;;;;20.27;15.20;;;;;;;;;;4980592;28;20286;-80
2021/10/18 02:51:33;;;;;;;19.90;15.13;;;;;;;;;;4978686;28;20297;-81
2021/10/18 02:54:02;;;;;;;19.33;15.13;;;;;;;;;;4978342;28;20294;-80
2021/10/18 02:56:29;;;;;;;17.73;14.87;;;;;;;;;;4977857;28;20609;-80
2021/10/18 02:58:57;;;;;;;20.53;15.27;;;;;;;;;;4987570;28;20316;-81
2021/10/18 03:01:24;;;;;;;21.70;15.67;;;;;;;;;;4974294;28;20614;-80
2021/10/18 03:03:52;;;;;;;19.93;15.63;;;;;;;;;;4989321;28;20292;-81
2021/10/18 03:06:20;;;;;;;17.87;14.47;;;;;;;;;;4988808;28;20238;-80
2021/10/18 03:08:47;;;;;;;17.63;14.20;;;;;;;;;;4989312;28;20290;-80
2021/10/18 03:11:14;;;;;;;16.97;14.97;;;;;;;;;;4988876;28;20292;-81
2021/10/18 03:13:41;;;;;;;20.13;15.43;;;;;;;;;;4989302;28;20233;-81
2021/10/18 03:16:09;;;;;;;20.53;15.67;;;;;;;;;;4989433;28;20577;-81
2021/10/18 03:18:36;;;;;;;19.80;15.27;;;;;;;;;;4988842;28;20260;-81
2021/10/18 03:21:04;;;;;;;18.50;15.27;;;;;;;;;;4975972;28;20234;-81
2021/10/18 03:23:32;;;;;;;17.47;15.00;;;;;;;;;;4977952;28;20722;-80
2021/10/18 03:25:59;;;;;;;17.90;14.63;;;;;;;;;;4973193;28;20287;-81
2021/10/18 03:28:26;;;;;;;18.37;15.17;;;;;;;;;;4973481;28;20293;-80
2021/10/18 03:30:53;;;;;;;18.70;15.20;;;;;;;;;;4988956;28;20281;-81
2021/10/18 03:33:20;;;;;;;18.67;15.03;;;;;;;;;;4989124;28;20339;-81
2021/10/18 03:35:49;;;;;;;18.43;15.10;;;;;;;;;;4988374;28;20752;-81
2021/10/18 03:38:18;;;;;;;18.67;14.87;;;;;;;;;;4988902;28;20727;-80
2021/10/18 03:40:45;;;;;;;18.10;15.03;;;;;;;;;;4987590;28;20693;-81
2021/10/18 03:43:12;;;;;;;19.30;15.03;;;;;;;;;;4975084;28;20293;-80
2021/10/18 03:45:39;;;;;;;18.90;15.43;;;;;;;;;;4987892;28;20293;-81
2021/10/18 03:48:07;;;;;;;18.97;15.90;;;;;;;;;;4992370;28;20277;-81
2021/10/18 03:50:34;;;;;;;20.90;15.83;;;;;;;;;;4992288;28;20281;-81
2021/10/18 03:53:01;;;;;;;16.40;14.17;;;;;;;;;;4980562;28;20201;-81
2021/10/18 03:55:29;;;;;;;18.13;14.57;;;;;;;;;;4988190;28;20213;-80
2021/10/18 03:57:57;;;;;;;20.87;15.00;;;;;;;;;;4976130;28;20642;-80
2021/10/18 04:00:24;;;;;;;20.00;15.70;;;;;;;;;;4992288;28;20288;-80
2021/10/18 04:02:51;;;;;;;19.03;15.57;;;;;;;;;;4991603;28;20222;-80
2021/10/18 04:05:18;;;;;;;18.90;15.00;;;;;;;;;;4987183;28;20286;-80
2021/10/18 04:07:47;;;;;;;20.87;15.87;;;;;;;;;;4972676;28;20213;-80
2021/10/18 04:10:15;;;;;;;18.73;15.90;;;;;;;;;;4977310;28;20204;-80
2021/10/18 04:12:43;;;;;;;19.60;15.90;;;;;;;;;;4992607;28;20210;-80
2021/10/18 04:15:11;;;;;;;19.90;15.00;;;;;;;;;;4986124;28;20342;-80
2021/10/18 04:17:38;;;;;;;20.03;15.90;;;;;;;;;;4980571;28;20259;-81
2021/10/18 04:20:06;;;;;;;20.03;15.70;;;;;;;;;;4987093;28;20313;-80
2021/10/18 04:22:34;;;;;;;18.57;15.17;;;;;;;;;;4978016;28;20266;-80
2021/10/18 04:25:01;;;;;;;18.90;15.63;;;;;;;;;;4988973;28;20288;-80
2021/10/18 04:27:28;;;;;;;18.43;15.87;;;;;;;;;;4992001;28;20204;-80
2021/10/18 04:29:56;;;;;;;20.90;16.73;;;;;;;;;;4991769;28;20285;-80
2021/10/18 04:32:24;;;;;;;23.10;17.63;;;;;;;;;;4991693;28;20296;-80
2021/10/18 04:34:51;;;;;;;21.73;17.20;;;;;;;;;;4990526;28;20225;-80
2021/10/18 04:37:18;;;;;;;22.73;18.30;;;;;;;;;;4988716;28;20298;-80
2021/10/18 04:39:45;;;;;;;23.13;17.60;;;;;;;;;;4978970;28;20325;-80
2021/10/18 04:42:12;;;;;;;21.80;17.50;;;;;;;;;;4981272;28;20230;-80
2021/10/18 04:44:39;;;;;;;24.40;19.10;;;;;;;;;;4972163;28;20260;-80
2021/10/18 04:47:08;;;;;;;25.83;20.60;;;;;;;;;;4988934;28;20244;-80
2021/10/18 04:49:35;;;;;;;27.27;20.23;;;;;;;;;;4986913;28;20401;-80
2021/10/18 04:52:02;;;;;;;26.43;20.17;;;;;;;;;;4979017;28;20292;-80
2021/10/18 04:54:29;;;;;;;24.97;19.17;;;;;;;;;;4980070;28;20299;-80
2021/10/18 04:56:57;;;;;;;22.60;19.00;;;;;;;;;;4982846;28;20216;-80
2021/10/18 04:59:24;;;;;;;25.17;19.73;;;;;;;;;;4983707;28;20648;-81
2021/10/18 05:01:51;;;;;;;26.13;20.83;;;;;;;;;;4977485;28;20305;-80
2021/10/18 05:04:19;;;;;;;24.83;19.67;;;;;;;;;;4988434;28;20760;-79
2021/10/18 05:06:47;;;;;;;25.77;20.83;;;;;;;;;;4985709;28;20292;-79
2021/10/18 05:09:16;;;;;;;24.47;19.67;;;;;;;;;;4990933;28;20285;-81
2021/10/18 05:11:43;;;;;;;25.50;20.00;;;;;;;;;;4990953;28;20289;-80
2021/10/18 05:14:10;;;;;;;23.87;19.87;;;;;;;;;;4976089;28;20290;-80
2021/10/18 05:16:39;;;;;;;25.50;20.63;;;;;;;;;;4983322;28;20328;-78
2021/10/18 05:19:06;;;;;;;27.20;21.13;;;;;;;;;;4986500;28;20389;-79
2021/10/18 05:21:35;;;;;;;25.40;21.03;;;;;;;;;;4990897;28;20236;-79
2021/10/18 05:24:02;;;;;;;28.00;21.73;;;;;;;;;;4991181;28;20307;-80
2021/10/18 05:26:29;;;;;;;24.63;20.57;;;;;;;;;;4975222;28;20636;-80
2021/10/18 05:28:56;;;;;;;27.20;21.53;;;;;;;;;;4984543;28;20233;-80
2021/10/18 05:31:23;;;;;;;25.93;20.80;;;;;;;;;;4981247;28;20282;-79
2021/10/18 05:33:51;;;;;;;25.57;20.27;;;;;;;;;;4984846;28;20254;-78
2021/10/18 05:36:18;;;;;;;25.37;20.10;;;;;;;;;;4987297;28;20229;-80
2021/10/18 05:38:47;;;;;;;23.33;19.90;;;;;;;;;;4976376;28;20750;-80
2021/10/18 05:41:14;;;;;;;26.10;19.67;;;;;;;;;;4983766;28;20281;-77
2021/10/18 05:43:41;;;;;;;25.30;19.13;;;;;;;;;;4990537;28;20240;-80
2021/10/18 05:46:08;;;;;;;25.50;19.90;;;;;;;;;;4986565;28;20233;-81
2021/10/18 05:48:36;;;;;;;26.33;20.30;;;;;;;;;;4971926;28;20218;-81
2021/10/18 05:51:04;;;;;;;25.43;20.63;;;;;;;;;;4990355;28;20213;-80
2021/10/18 05:53:31;;;;;;;26.17;21.03;;;;;;;;;;4991180;28;20633;-81
2021/10/18 05:55:59;;;;;;;25.47;20.83;;;;;;;;;;4990733;28;20243;-80
2021/10/18 05:58:26;;;;;;;30.77;22.83;;;;;;;;;;4991090;28;20304;-80
2021/10/18 06:00:54;;;;;;;32.83;24.00;;;;;;;;;;4990862;28;20240;-81
2021/10/18 06:03:21;;;;;;;31.53;24.40;;;;;;;;;;4990905;28;20626;-81
2021/10/18 06:05:48;;;;;;;31.77;25.13;;;;;;;;;;4989922;28;20592;-81
2021/10/18 06:08:16;;;;;;;35.57;25.73;;;;;;;;;;4990896;28;20202;-81
2021/10/18 06:10:43;;;;;;;36.77;24.53;;;;;;;;;;4987472;28;20277;-81
2021/10/18 06:13:12;;;;;;;41.13;26.50;;;;;;;;;;4992211;28;20302;-81
2021/10/18 06:15:40;;;;;;;38.73;26.70;;;;;;;;;;4989888;28;20296;-81
2021/10/18 06:18:08;;;;;;;42.30;25.47;;;;;;;;;;4981764;28;20296;-81
2021/10/18 06:20:39;;;;;;;55.37;26.33;;;;;;;;;;4995494;28;20241;-80
2021/10/18 06:23:06;;;;;;;69.47;26.43;;;;;;;;;;5015650;28;20643;-80
2021/10/18 06:25:33;;;;;;;64.17;24.83;;;;;;;;;;4988340;28;20633;-80
2021/10/18 06:28:01;;;;;;;80.83;27.70;;;;;;;;;;4977962;28;20298;-81
2021/10/18 06:30:29;;;;;;;99.60;25.63;;;;;;;;;;4970539;28;20203;-81
2021/10/18 06:32:56;;;;;;;101.03;27.63;;;;;;;;;;4995570;28;20293;-80
2021/10/18 06:35:24;;;;;;;81.33;28.40;;;;;;;;;;4985123;28;20202;-80
2021/10/18 06:37:54;;;;;;;89.47;27.67;;;;;;;;;;4973923;28;20635;-81
2021/10/18 06:40:23;;;;;;;91.70;26.97;;;;;;;;;;4987839;28;20221;-79
2021/10/18 06:42:52;;;;;;;80.50;27.07;;;;;;;;;;5032315;28;20285;-80
2021/10/18 06:45:20;;;;;;;67.50;28.10;;;;;;;;;;4975176;28;20295;-81
2021/10/18 06:47:48;;;;;;;91.43;27.53;;;10.80;99.90;;;;;;5017749;28;20244;-81
2021/10/18 06:50:16;;;;;;;139.47;30.43;;;11.00;99.90;;;;;;4976885;28;20950;-80
2021/10/18 06:52:43;;;;;;;118.00;30.77;;;11.00;99.90;;;;;;4989821;28;20212;-81
2021/10/18 06:55:11;;;;;;;83.90;27.80;;;11.00;99.90;;;;;;5010542;28;20229;-80
2021/10/18 06:57:39;;;;;;;88.07;26.23;;;11.00;99.90;;;;;;4978942;28;20217;-81
2021/10/18 07:00:07;;;;;;;97.73;25.90;;;11.10;99.90;;;;;;4979622;28;20402;-80
2021/10/18 07:02:35;;;;;;;86.07;26.50;;;11.20;99.90;;;;;;4981885;28;20269;-80
2021/10/18 07:05:03;;;;;;;126.87;27.80;;;11.20;99.90;;;;;;4978311;28;20307;-80
2021/10/18 07:07:31;;;;;;;97.80;29.07;;;11.20;99.90;;;;;;4988449;28;20289;-81
2021/10/18 07:10:00;;;;;;;73.23;28.10;;;11.20;99.90;;;;;;4988742;28;20296;-81
2021/10/18 07:12:29;;;;;;;66.90;25.83;;;11.30;99.90;;;;;;4983839;28;20239;-81
2021/10/18 07:14:56;;;;;;;91.90;27.73;;;11.40;99.90;;;;;;4978405;28;20201;-81
2021/10/18 07:17:23;;;;;;;101.20;27.70;;;11.50;99.90;;;;;;4980752;28;20206;-80
2021/10/18 07:19:50;;;;;;;94.53;26.77;;;11.60;99.90;;;;;;4975359;28;20246;-80
2021/10/18 07:22:20;;;;;;;76.73;25.80;;;11.60;99.90;;;;;;5002377;28;20282;-81
2021/10/18 07:24:47;;;;;;;62.40;23.80;;;11.60;99.90;;;;;;5009007;28;20205;-80
2021/10/18 07:27:14;;;;;;;54.20;24.23;;;11.60;99.90;;;;;;4990825;28;20229;-79
2021/10/18 07:29:42;;;;;;;74.20;24.90;;;11.70;99.90;;;;;;4982819;28;20293;-80
2021/10/18 07:32:09;;;;;;;49.17;23.60;;;11.70;99.90;;;;;;5026456;28;20294;-81
2021/10/18 07:34:36;;;;;;;51.97;22.73;;;11.80;99.90;;;;;;4973241;28;20332;-81
2021/10/18 07:37:03;;;;;;;48.00;22.40;;;11.80;99.90;;;;;;4986074;28;20972;-80
2021/10/18 07:39:32;;;;;;;73.13;23.90;;;11.70;99.90;;;;;;4991348;28;20230;-80
2021/10/18 07:42:00;;;;;;;59.87;24.07;;;11.80;99.90;;;;;;4980230;28;20293;-80
2021/10/18 07:44:28;;;;;;;53.33;23.90;;;11.80;99.90;;;;;;4991218;28;20206;-81
2021/10/18 07:46:59;;;;;;;37.63;22.27;;;11.80;99.90;;;;;;4991066;28;20201;-81
2021/10/18 07:49:27;;;;;;;44.70;22.90;;;11.80;99.90;;;;;;4985745;28;20229;-81
2021/10/18 07:51:55;;;;;;;38.83;22.67;;;11.90;99.90;;;;;;5035186;28;20210;-81
2021/10/18 07:54:23;;;;;;;35.63;21.77;;;11.90;99.90;;;;;;4995762;28;20222;-81
2021/10/18 07:56:52;;;;;;;36.53;22.50;;;12.00;99.90;;;;;;4992099;28;20271;-81
2021/10/18 07:59:19;;;;;;;35.90;22.80;;;12.00;99.90;;;;;;5008322;28;20309;-80
2021/10/18 08:01:46;;;;;;;37.70;23.43;;;12.10;99.90;;;;;;4989911;28;20274;-80
2021/10/18 08:04:12;;;;;;;37.77;22.83;;;12.30;99.90;;;;;;4990456;28;20237;-81
2021/10/18 08:06:39;;;;;;;36.77;23.50;;;12.30;99.90;;;;;;4977791;28;20289;-81
2021/10/18 08:09:08;;;;;;;35.87;21.40;;;12.40;99.90;;;;;;5021258;28;20297;-81
2021/10/18 08:11:35;;;;;;;36.17;22.07;;;12.40;99.90;;;;;;4978208;28;20210;-82
2021/10/18 08:14:04;;;;;;;35.67;21.63;;;12.50;99.90;;;;;;4988471;28;20301;-81
2021/10/18 08:16:31;;;;;;;33.10;20.70;;;12.50;99.90;;;;;;5016847;28;20245;-81
2021/10/18 08:18:58;;;;;;;30.17;20.03;;;12.60;99.90;;;;;;4983244;28;20293;-81
2021/10/18 08:21:25;;;;;;;32.70;20.63;;;12.70;99.90;;;;;;4975512;28;20317;-81
2021/10/18 08:23:52;;;;;;;30.90;20.23;;;12.80;99.90;;;;;;4987299;28;20225;-80
2021/10/18 08:26:19;;;;;;;29.77;19.97;;;12.80;99.90;;;;;;4991121;28;20720;-81
2021/10/18 08:28:46;;;;;;;27.80;19.57;;;12.70;99.90;;;;;;4981329;28;20206;-80
2021/10/18 08:31:15;;;;;;;27.13;19.53;;;12.70;99.90;;;;;;4971602;28;20297;-80
2021/10/18 08:33:43;;;;;;;26.70;19.50;;;12.70;99.90;;;;;;5012373;28;20266;-81
2021/10/18 08:36:09;;;;;;;26.77;18.20;;;12.80;99.90;;;;;;4980986;28;20297;-81
2021/10/18 08:38:47;;;;;;;26.93;18.97;;;12.80;99.90;;;;;;4980503;28;20644;-81
2021/10/18 08:41:17;;;;;;;33.20;22.83;;;12.90;99.90;;;;;;4977443;28;20229;-81
2021/10/18 08:46:30;;;;;;;94.43;55.53;;;13.00;99.90;;;;;;4989898;28;20246;-80
2021/10/18 08:48:59;;;;;;;65.30;41.03;;;13.00;99.90;;;;;;5047473;28;20281;-80
2021/10/18 08:51:27;;;;;;;50.07;34.60;;;13.00;99.90;;;;;;5004319;28;20233;-80
2021/10/18 08:53:54;;;;;;;54.30;35.13;;;13.00;99.90;;;;;;4995627;28;20206;-81
2021/10/18 08:56:22;;;;;;;50.57;35.97;;;13.10;99.90;;;;;;5037964;28;20233;-79
2021/10/18 08:58:49;;;;;;;56.63;39.27;;;13.10;99.90;;;;;;4991120;28;20206;-81
2021/10/18 09:01:16;;;;;;;43.40;30.13;;;13.10;99.90;;;;;;5012161;28;20320;-80
2021/10/18 09:03:44;;;;;;;38.70;26.53;;;13.10;99.90;;;;;;5023339;28;20259;-80
2021/10/18 09:06:14;;;;;;;37.57;24.57;;;13.20;99.90;;;;;;5012226;28;20305;-81
2021/10/18 09:08:43;;;;;;;39.87;25.10;;;13.20;99.90;;;;;;4974954;28;20238;-81
2021/10/18 09:11:12;;;;;;;41.37;25.13;;;13.20;99.90;;;;;;5007262;28;20646;-80
2021/10/18 09:13:45;;;;;;;35.47;23.70;;;13.30;99.90;;;;;;4988482;28;20754;-81
2021/10/18 09:16:22;;;;;;;38.17;25.47;;;13.30;99.90;;;;;;4990345;28;20245;-81
2021/10/18 09:19:03;;;;;;;32.37;22.33;;;13.50;99.90;;;;;;4991918;28;20230;-80
2021/10/18 09:21:32;;;;;;;35.93;23.97;;;13.40;99.90;;;;;;4980290;28;20640;-80
2021/10/18 09:24:01;;;;;;;40.07;24.97;;;13.50;99.90;;;;;;4978742;28;20284;-80
2021/10/18 09:26:31;;;;;;;39.70;25.33;;;13.60;99.90;;;;;;4981293;28;20260;-80
2021/10/18 09:29:04;;;;;;;38.60;27.30;;;13.60;99.90;;;;;;4980541;28;20212;-80
2021/10/18 09:31:31;;;;;;;37.03;25.37;;;13.60;99.90;;;;;;5008204;28;20206;-81
2021/10/18 09:34:07;;;;;;;37.00;25.03;;;13.60;99.90;;;;;;4972486;28;20317;-80
2021/10/18 09:36:36;;;;;;;38.37;26.00;;;13.60;99.90;;;;;;4980286;28;20262;-81
2021/10/18 09:39:28;;;;;;;37.43;25.50;;;13.70;99.90;;;;;;4986109;28;20202;-80
2021/10/18 09:42:01;;;;;;;38.87;25.87;;;13.70;99.90;;;;;;5045245;28;20230;-80
2021/10/18 09:44:59;;;;;;;44.47;27.73;;;13.80;99.90;;;;;;4979923;28;20613;-80
2021/10/18 10:52:58;;;;;;;32.63;24.00;;;;;;;;;;5027987;28;20212;-81
2021/10/18 10:55:34;;;;;;;33.47;24.70;;;;;;;;;;4989191;28;20206;-82
2021/10/18 10:58:10;;;;;;;35.63;25.60;;;;;;;;;;4986749;28;20212;-81
2021/10/18 11:00:47;;;;;;;33.37;24.43;;;;;;;;;;5020109;28;20634;-80
2021/10/18 11:03:43;;;;;;;35.50;27.23;;;;;;;;;;5043594;28;20325;-81
2021/10/18 11:06:20;;;;;;;36.77;27.77;;;;;;;;;;4988870;28;20696;-82
2021/10/18 11:08:56;;;;;;;51.43;34.13;;;;;;;;;;5000313;28;20265;-81
2021/10/18 11:11:32;;;;;;;53.53;37.00;;;;;;;;;;5024675;28;20281;-82
2021/10/18 11:14:10;;;;;;;57.67;38.80;;;;;;;;;;4996806;28;20197;-81
2021/10/18 11:16:50;;;;;;;54.37;36.57;;;;;;;;;;4983404;28;20811;-81
2021/10/18 11:19:31;;;;;;;49.97;35.90;;;;;;;;;;4972386;28;20774;-81
2021/10/18 11:22:11;;;;;;;46.80;34.47;;;;;;;;;;4970591;28;20285;-81
2021/10/18 11:24:51;;;;;;;44.77;34.53;;;;;;;;;;4975467;28;20313;-81
2021/10/18 11:27:37;;;;;;;46.80;35.90;;;;;;;;;;4991108;28;20297;-81
2021/10/18 11:30:20;;;;;;;49.73;38.33;;;;;;;;;;4990459;28;20289;-81
2021/10/18 11:33:04;;;;;;;43.50;34.20;;;;;;;;;;4990707;28;20288;-81
2021/10/18 11:35:42;;;;;;;40.77;32.77;;;;;;;;;;4991188;28;20202;-81
2021/10/18 11:38:13;;;;;;;36.00;30.20;;;;;;;;;;4990454;28;20237;-80
2021/10/18 11:40:44;;;;;;;28.70;22.70;;;;;;;;;;4990340;28;20212;-81
2021/10/18 11:43:14;;;;;;;25.30;21.20;;;;;;;;;;4990455;28;20216;-81
2021/10/18 11:45:45;;;;;;;23.23;20.07;;;;;;;;;;4971407;28;20231;-82
2021/10/18 11:48:17;;;;;;;24.50;18.97;;;;;;;;;;4971125;28;20266;-81
2021/10/18 11:50:52;;;;;;;21.57;15.90;;;;;;;;;;4971315;28;20214;-81
2021/10/18 11:53:22;;;;;;;19.77;15.87;;;;;;;;;;4971344;28;20216;-81
2021/10/18 11:55:52;;;;;;;18.90;14.90;;;;;;;;;;4971628;28;20209;-81
2021/10/18 11:58:23;;;;;;;17.70;15.00;;;;;;;;;;4971599;28;20230;-80
2021/10/18 12:00:59;;;;;;;18.73;15.07;;;;;;;;;;4971555;28;20272;-81
2021/10/18 12:03:32;;;;;;;16.37;14.30;;;;;;;;;;4970321;28;20244;-81
2021/10/18 12:06:02;;;;;;;17.13;13.93;;;;;;;;;;4982553;28;20244;-81
2021/10/18 12:08:33;;;;;;;18.27;14.17;;;;;;;;;;4993805;28;20280;-81
2021/10/18 12:11:03;;;;;;;17.07;13.17;;;;;;;;;;4980156;28;20294;-81
2021/10/18 12:13:34;;;;;;;17.03;13.23;;;;;;;;;;4974732;28;20289;-80
2021/10/18 12:16:11;;;;;;;16.90;13.43;;;;;;;;;;4974609;28;20195;-81
2021/10/18 12:18:47;;;;;;;16.17;13.50;;;;;;;;;;4974575;28;20236;-81
2021/10/18 12:21:17;;;;;;;15.20;12.70;;;;;;;;;;4974757;28;20287;-81
2021/10/18 12:23:51;;;;;;;17.10;13.70;;;;;;;;;;4974334;28;20241;-81
2021/10/18 12:26:21;;;;;;;17.07;13.37;;;;;;;;;;4989130;28;20309;-81
2021/10/18 12:28:53;;;;;;;14.93;12.80;;;;;;;;;;4990712;28;20233;-80
2021/10/18 12:31:39;;;;;;;16.37;13.13;;;;;;;;;;4974451;28;20681;-81
2021/10/18 12:34:14;;;;;;;18.63;12.70;;;;;;;;;;4974824;28;20324;-82
2021/10/18 12:36:55;;;;;;;15.57;12.83;;;;;;;;;;4974595;28;20234;-82
2021/10/18 12:39:45;;;;;;;17.43;12.87;;;;;;;;;;4974635;28;20672;-81
2021/10/18 12:42:16;;;;;;;18.63;13.37;;;;;;;;;;4991908;28;20205;-82
2021/10/18 12:44:46;;;;;;;17.10;13.93;;;;;;;;;;4993986;28;20765;-82
2021/10/18 12:47:15;;;;;;;15.93;13.77;;;;;;;;;;4994151;28;20289;-82
2021/10/18 12:49:51;;;;;;;17.73;14.87;;;;;;;;;;4994130;28;20210;-82
2021/10/18 12:52:26;;;;;;;18.80;16.53;;;;;;;;;;4994019;28;20564;-82
2021/10/18 12:54:53;;;;;;;18.97;16.63;;;;;;;;;;4994388;28;20736;-82
2021/10/18 12:57:24;;;;;;;23.00;17.77;;;;;;;;;;4993830;28;20729;-82
2021/10/18 13:00:02;;;;;;;19.50;17.40;;;;;;;;;;4993247;28;20707;-81
2021/10/18 13:02:30;;;;;;;19.77;16.80;;;;;;;;;;4973592;28;20249;-82
2021/10/18 13:05:02;;;;;;;20.27;17.03;;;;;;;;;;4973452;28;20681;-82
2021/10/18 13:07:29;;;;;;;18.40;15.90;;;;;;;;;;4988482;28;20252;-81
2021/10/18 13:09:56;;;;;;;20.57;15.23;;;;;;;;;;4982849;28;20246;-82
2021/10/18 13:12:26;;;;;;;20.00;16.00;;;;;;;;;;4981132;28;20293;-81
2021/10/18 13:14:53;;;;;;;17.43;15.17;;;;;;;;;;4992840;28;20206;-81
2021/10/18 13:17:20;;;;;;;18.87;16.40;;;;;;;;;;4993540;28;20228;-82
2021/10/18 13:19:48;;;;;;;19.43;16.73;;;;;;;;;;4993411;28;20289;-81
2021/10/18 13:22:17;;;;;;;19.97;17.20;;;;;;;;;;4993922;28;20205;-81
2021/10/18 13:24:44;;;;;;;19.63;16.73;;;;;;;;;;4993340;28;20332;-82
2021/10/18 13:27:11;;;;;;;19.60;17.50;;;;;;;;;;4993679;28;20225;-82
2021/10/18 13:29:38;;;;;;;24.00;18.70;;;;;;;;;;4993356;28;20266;-82
2021/10/18 13:32:06;;;;;;;21.13;17.75;;;;;;;;;;4993458;28;20213;-82
2021/10/18 13:34:34;;;;;;;18.70;16.40;;;;;;;;;;4992452;28;20264;-81
2021/10/18 13:37:02;;;;;;;18.00;15.33;;;;;;;;;;4993454;28;20660;-82
2021/10/18 13:39:31;;;;;;;15.88;14.05;;;;;;;;;;4988618;28;20210;-81
2021/10/18 13:41:58;;;;;;;16.20;14.27;;;;;;;;;;4973918;28;20238;-82
2021/10/18 13:44:25;;;;;;;17.85;14.60;;;;;;;;;;4973805;28;20266;-82
2021/10/18 13:46:52;;;;;;;17.70;14.80;;;;;;;;;;4986221;28;20257;-81
2021/10/18 13:49:19;;;;;;;17.60;15.17;;;;;;;;;;4992700;28;20217;-81
2021/10/18 13:51:47;;;;;;;15.90;14.23;;;;;;;;;;4976542;28;20286;-81
2021/10/18 13:54:14;;;;;;;16.30;14.53;;;;;;;;;;4989084;28;20297;-82
2021/10/18 13:56:42;;;;;;;17.90;14.52;;;;;;;;;;4992030;28;20325;-82
2021/10/18 13:59:10;;;;;;;16.93;15.13;;;;;;;;;;5017354;28;20233;-81
2021/10/18 14:01:37;;;;;;;17.73;15.73;;;;;;;;;;4981024;28;20577;-82
2021/10/18 14:04:05;;;;;;;22.10;17.60;;;;;;;;;;4989009;28;20226;-82
2021/10/18 14:06:32;;;;;;;21.03;18.20;;;;;;;;;;4985624;28;20309;-82
2021/10/18 14:09:00;;;;;;;20.50;17.70;;;;;;;;;;4990155;28;20210;-81
2021/10/18 14:11:27;;;;;;;21.23;17.77;;;;;;;;;;4984464;28;20288;-82
2021/10/18 14:13:56;;;;;;;21.43;17.70;;;;;;;;;;4981674;28;20716;-81
2021/10/18 14:16:23;;;;;;;22.20;18.10;;;;;;;;;;4987456;28;20235;-81
2021/10/18 14:18:50;;;;;;;21.60;17.93;;;;;;;;;;4987840;28;20284;-80
2021/10/18 14:21:17;;;;;;;21.30;17.83;;;;;;;;;;4979157;28;20241;-78
2021/10/18 14:23:44;;;;;;;18.27;15.70;;;;;;;;;;4978720;28;20242;-79
2021/10/18 14:26:12;;;;;;;16.77;15.00;;;;;;;;;;4981718;28;20310;-79
2021/10/18 14:28:39;;;;;;;15.93;14.23;;;;;;;;;;4981973;28;20241;-77
2021/10/18 14:31:07;;;;;;;16.38;13.95;;;;;;;;;;4979381;28;20677;-79
2021/10/18 14:33:36;;;;;;;16.07;14.33;;;;;;;;;;4981404;28;20317;-78
2021/10/18 14:36:03;;;;;;;16.90;14.73;;;;;;;;;;4979231;28;20256;-78
2021/10/18 14:38:31;;;;;;;17.33;14.67;;;;;;;;;;4979366;28;20323;-78
2021/10/18 14:40:58;;;;;;;14.57;13.07;;;;;;;;;;4984728;28;20232;-79
2021/10/18 14:43:26;;;;;;;16.23;14.53;;;;;;;;;;4984266;28;20258;-78
2021/10/18 14:45:53;;;;;;;16.23;14.53;;;;;;;;;;4978255;28;20308;-79
2021/10/18 14:48:22;;;;;;;16.63;14.77;;;;;;;;;;4979382;28;20289;-79
2021/10/18 14:50:49;;;;;;;16.57;13.90;;;;;;;;;;4980049;28;20284;-79
2021/10/18 14:53:16;;;;;;;16.60;14.43;;;;;;;;;;4981394;28;20237;-79
2021/10/18 14:55:43;;;;;;;15.47;13.20;;;;;;;;;;4982476;28;20233;-79
2021/10/18 14:58:12;;;;;;;15.30;13.53;;;;;;;;;;4981938;28;20231;-79
2021/10/18 15:00:40;;;;;;;15.83;13.17;;;;;;;;;;4988010;28;20285;-79
2021/10/18 15:03:07;;;;;;;16.55;14.20;;;;;;;;;;4981263;28;20277;-79
2021/10/18 15:05:36;;;;;;;17.37;14.40;;;;;;;;;;4985896;28;20222;-79
2021/10/18 15:08:03;;;;;;;17.35;14.15;;;;;;;;;;4971718;28;20297;-79
2021/10/18 15:10:30;;;;;;;16.20;14.48;;;;;;;;;;4982280;28;20281;-79